Time,TemperatureF,DewpointF,PressureIn,WindDirection,WindDirectionDegrees,WindSpeedMPH,WindSpeedGustMPH,Humidity,HourlyPrecipIn,Conditions,Clouds,dailyrainin,SoftwareType,DateUTC
2013-03-25 00:04:00,34.0,33.1,29.63,North,360,0.0,0.0,97,0.05,,,0.05,WSDL version 420,2013-03-25 04:04:00,
2013-03-25 00:09:00,34.0,33.1,29.63,NNW,338,0.0,0.0,97,0.05,,,0.05,WSDL version 420,2013-03-25 04:09:00,
2013-03-25 00:14:00,34.0,33.1,29.63,North,8,0.0,0.0,97,0.05,,,0.05,WSDL version 420,2013-03-25 04:14:00,
2013-03-25 00:19:00,34.0,33.1,29.63,NE,45,0.0,0.0,97,0.05,,,0.05,WSDL version 420,2013-03-25 04:19:00,
2013-03-25 00:24:00,33.9,33.1,29.63,North,360,0.0,0.0,97,0.05,,,0.05,WSDL version 420,2013-03-25 04:24:00,
2013-03-25 00:29:00,33.8,33.0,29.63,NNW,338,0.0,0.0,97,0.05,,,0.05,WSDL version 420,2013-03-25 04:29:00,
2013-03-25 00:34:00,33.8,33.2,29.63,NNW,340,0.0,0.0,98,0.05,,,0.05,WSDL version 420,2013-03-25 04:34:00,
2013-03-25 00:39:00,33.8,33.2,29.63,North,360,0.0,0.0,98,0.05,,,0.05,WSDL version 420,2013-03-25 04:39:00,
2013-03-25 00:44:00,33.8,33.2,29.63,NNW,338,0.0,0.0,98,0.05,,,0.05,WSDL version 420,2013-03-25 04:44:00,
2013-03-25 00:49:00,33.8,33.2,29.63,NE,35,0.0,0.0,98,0.05,,,0.05,WSDL version 420,2013-03-25 04:49:00,
2013-03-25 00:54:00,33.8,33.2,29.63,ENE,68,0.0,0.0,98,0.05,,,0.05,WSDL version 420,2013-03-25 04:54:00,
2013-03-25 00:59:00,33.8,33.2,29.63,NNW,338,0.0,0.0,98,0.05,,,0.05,WSDL version 420,2013-03-25 04:59:00,
2013-03-25 01:04:00,33.8,33.2,29.63,NNW,338,0.0,0.0,98,0.00,,,0.05,WSDL version 420,2013-03-25 05:04:00,
2013-03-25 01:09:00,34.0,33.4,29.63,NNW,338,0.0,0.0,98,0.00,,,0.05,WSDL version 420,2013-03-25 05:09:00,
2013-03-25 01:14:00,34.0,33.5,29.63,NNW,338,0.0,0.0,98,0.00,,,0.05,WSDL version 420,2013-03-25 05:14:00,
2013-03-25 01:19:00,34.0,33.5,29.59,North,3,0.0,0.0,98,0.00,,,0.05,WSDL version 420,2013-03-25 05:19:00,
2013-03-25 01:24:00,34.0,33.4,29.59,NNW,345,0.0,0.0,98,0.00,,,0.05,WSDL version 420,2013-03-25 05:24:00,
2013-03-25 01:29:00,34.0,33.4,29.59,ENE,68,0.0,0.0,98,0.00,,,0.05,WSDL version 420,2013-03-25 05:29:00,
2013-03-25 01:34:00,34.0,33.4,29.63,NNW,343,0.0,0.0,98,0.00,,,0.05,WSDL version 420,2013-03-25 05:34:00,
2013-03-25 01:39:00,33.8,33.0,29.63,West,278,0.0,0.9,97,0.00,,,0.05,WSDL version 420,2013-03-25 05:39:00,
2013-03-25 01:44:00,33.6,33.1,29.63,West,270,0.0,3.1,98,0.00,,,0.05,WSDL version 420,2013-03-25 05:44:00,
2013-03-25 01:49:00,33.6,33.1,29.63,WSW,253,0.0,3.1,98,0.00,,,0.05,WSDL version 420,2013-03-25 05:49:00,
2013-03-25 01:54:00,33.6,33.0,29.63,WSW,248,0.0,0.0,97,0.00,,,0.05,WSDL version 420,2013-03-25 05:54:00,
2013-03-25 01:59:00,33.4,32.6,29.63,WSW,248,0.0,0.0,97,0.00,,,0.05,WSDL version 420,2013-03-25 05:59:00,
2013-03-25 02:04:00,33.3,32.4,29.63,WSW,248,0.0,0.0,97,0.00,,,0.05,WSDL version 420,2013-03-25 06:04:00,
2013-03-25 02:09:00,33.3,32.4,29.63,WNW,298,0.7,2.5,97,0.00,,,0.05,WSDL version 420,2013-03-25 06:09:00,
2013-03-25 02:14:00,33.3,32.5,29.63,NE,42,1.2,2.9,97,0.00,,,0.05,WSDL version 420,2013-03-25 06:14:00,
2013-03-25 02:19:00,33.3,32.4,29.63,NNE,14,0.3,2.9,97,0.00,,,0.05,WSDL version 420,2013-03-25 06:19:00,
2013-03-25 02:24:00,33.4,32.7,29.63,NNE,15,0.0,3.4,98,0.00,,,0.05,WSDL version 420,2013-03-25 06:24:00,
2013-03-25 02:29:00,33.8,33.2,29.63,WNW,301,3.1,5.8,98,0.00,,,0.05,WSDL version 420,2013-03-25 06:29:00,
2013-03-25 02:34:00,34.2,33.6,29.62,SSE,158,1.5,5.8,98,0.00,,,0.05,WSDL version 420,2013-03-25 06:34:00,
2013-03-25 02:39:00,34.3,33.8,29.62,NNE,17,0.8,2.9,98,0.00,,,0.05,WSDL version 420,2013-03-25 06:39:00,
2013-03-25 02:44:00,34.3,33.8,29.62,ESE,113,0.0,3.6,98,0.00,,,0.05,WSDL version 420,2013-03-25 06:44:00,
2013-03-25 02:49:00,34.3,33.8,29.62,North,355,0.2,3.6,98,0.00,,,0.05,WSDL version 420,2013-03-25 06:49:00,
2013-03-25 02:54:00,34.3,33.7,29.62,East,96,0.0,3.1,97,0.00,,,0.05,WSDL version 420,2013-03-25 06:54:00,
2013-03-25 02:59:00,34.3,33.4,29.62,East,83,1.2,3.4,97,0.00,,,0.05,WSDL version 420,2013-03-25 06:59:00,
2013-03-25 03:04:00,34.2,33.2,29.62,NNW,338,2.1,3.6,96,0.00,,,0.05,WSDL version 420,2013-03-25 07:04:00,
2013-03-25 03:09:00,34.0,32.8,29.63,WSW,253,0.0,3.6,95,0.00,,,0.05,WSDL version 420,2013-03-25 07:09:00,
2013-03-25 03:19:00,33.6,31.9,29.62,SSW,203,0.0,2.7,93,0.00,,,0.05,WSDL version 420,2013-03-25 07:19:00,
2013-03-25 03:24:00,33.3,31.4,29.62,South,170,0.8,3.1,92,0.00,,,0.05,WSDL version 420,2013-03-25 07:24:00,
2013-03-25 03:29:00,33.3,31.1,29.63,South,180,0.0,3.1,91,0.00,,,0.05,WSDL version 420,2013-03-25 07:29:00,
2013-03-25 03:34:00,33.1,30.8,29.63,SSE,148,0.2,2.5,91,0.00,,,0.05,WSDL version 420,2013-03-25 07:34:00,
2013-03-25 03:39:00,33.1,30.7,29.63,West,267,0.0,2.5,90,0.00,,,0.05,WSDL version 420,2013-03-25 07:39:00,
2013-03-25 03:44:00,33.1,30.7,29.63,SSE,168,0.4,2.5,91,0.00,,,0.05,WSDL version 420,2013-03-25 07:44:00,
2013-03-25 03:49:00,33.2,30.6,29.63,NNW,346,0.4,1.6,90,0.00,,,0.05,WSDL version 420,2013-03-25 07:49:00,
2013-03-25 03:54:00,33.3,30.8,29.63,SSW,210,0.0,2.5,90,0.00,,,0.05,WSDL version 420,2013-03-25 07:54:00,
2013-03-25 03:59:00,33.4,30.8,29.63,WSW,238,0.0,6.3,90,0.00,,,0.05,WSDL version 420,2013-03-25 07:59:00,
2013-03-25 04:04:00,33.4,30.6,29.63,SW,229,1.3,7.8,89,0.00,,,0.05,WSDL version 420,2013-03-25 08:04:00,
2013-03-25 04:09:00,33.4,30.5,29.63,WNW,290,0.6,7.8,89,0.00,,,0.05,WSDL version 420,2013-03-25 08:09:00,
2013-03-25 04:14:00,33.4,30.4,29.63,WSW,244,0.8,3.1,88,0.00,,,0.05,WSDL version 420,2013-03-25 08:14:00,
2013-03-25 04:19:00,33.4,29.9,29.63,SSW,198,1.6,4.3,86,0.00,,,0.05,WSDL version 420,2013-03-25 08:19:00,
2013-03-25 04:24:00,33.4,28.7,29.63,South,170,1.7,10.1,81,0.00,,,0.05,WSDL version 420,2013-03-25 08:24:00,
2013-03-25 04:29:00,33.4,28.4,29.63,SSE,150,1.3,10.1,82,0.00,,,0.05,WSDL version 420,2013-03-25 08:29:00,
2013-03-25 04:34:00,33.3,28.3,29.63,NE,48,0.0,3.1,82,0.00,,,0.05,WSDL version 420,2013-03-25 08:34:00,
2013-03-25 04:39:00,33.3,28.4,29.63,ENE,59,0.4,4.3,82,0.00,,,0.05,WSDL version 420,2013-03-25 08:39:00,
2013-03-25 04:44:00,33.1,28.1,29.63,SSE,163,1.7,4.3,81,0.00,,,0.05,WSDL version 420,2013-03-25 08:44:00,
2013-03-25 04:49:00,33.0,27.2,29.63,WSW,248,3.7,7.8,77,0.00,,,0.05,WSDL version 420,2013-03-25 08:49:00,
2013-03-25 04:54:00,32.9,26.1,29.63,WSW,255,1.2,7.8,76,0.00,,,0.05,WSDL version 420,2013-03-25 08:54:00,
2013-03-25 04:59:00,32.8,25.7,29.63,WNW,289,1.6,7.4,74,0.00,,,0.05,WSDL version 420,2013-03-25 08:59:00,
2013-03-25 05:04:00,32.7,25.6,29.63,ESE,118,0.8,6.3,75,0.00,,,0.05,WSDL version 420,2013-03-25 09:04:00,
2013-03-25 05:09:00,32.5,23.9,29.63,NNE,28,2.8,6.9,71,0.00,,,0.05,WSDL version 420,2013-03-25 09:09:00,
2013-03-25 05:14:00,32.3,23.6,29.63,SW,214,2.8,6.9,70,0.00,,,0.05,WSDL version 420,2013-03-25 09:14:00,
2013-03-25 05:19:00,32.2,22.6,29.63,SW,225,2.2,6.3,68,0.00,,,0.05,WSDL version 420,2013-03-25 09:19:00,
2013-03-25 05:24:00,32.2,23.4,29.63,SE,124,2.1,6.0,70,0.00,,,0.05,WSDL version 420,2013-03-25 09:24:00,
2013-03-25 05:29:00,32.0,23.4,29.64,West,280,3.5,6.3,67,0.00,,,0.05,WSDL version 420,2013-03-25 09:29:00,
2013-03-25 05:34:00,31.9,23.3,29.64,NE,56,1.2,6.3,67,0.00,,,0.05,WSDL version 420,2013-03-25 09:34:00,
2013-03-25 05:39:00,31.8,22.7,29.64,West,278,2.8,5.6,65,0.00,,,0.05,WSDL version 420,2013-03-25 09:39:00,
2013-03-25 05:44:00,31.7,22.2,29.64,West,270,3.4,6.3,65,0.00,,,0.05,WSDL version 420,2013-03-25 09:44:00,
2013-03-25 05:49:00,31.5,21.7,29.64,WNW,293,2.1,10.3,64,0.00,,,0.05,WSDL version 420,2013-03-25 09:49:00,
2013-03-25 05:54:00,31.5,22.4,29.64,WSW,253,1.6,10.3,66,0.00,,,0.05,WSDL version 420,2013-03-25 09:54:00,
2013-03-25 05:59:00,31.3,21.6,29.64,North,350,2.5,4.3,60,0.00,,,0.05,WSDL version 420,2013-03-25 09:59:00,
2013-03-25 06:04:00,31.2,20.6,29.64,WNW,290,1.8,7.6,63,0.00,,,0.05,WSDL version 420,2013-03-25 10:04:00,
2013-03-25 06:09:00,31.1,21.1,29.64,SE,135,2.3,7.6,62,0.00,,,0.05,WSDL version 420,2013-03-25 10:09:00,
2013-03-25 06:14:00,31.1,20.2,29.64,WNW,287,3.1,6.3,60,0.00,,,0.05,WSDL version 420,2013-03-25 10:14:00,
2013-03-25 06:19:00,31.0,20.1,29.64,SE,138,3.1,7.8,60,0.00,,,0.05,WSDL version 420,2013-03-25 10:19:00,
2013-03-25 06:24:00,30.9,20.2,29.64,NW,312,4.3,8.1,59,0.00,,,0.05,WSDL version 420,2013-03-25 10:24:00,
2013-03-25 06:29:00,30.7,20.1,29.64,NE,53,2.2,8.1,62,0.00,,,0.05,WSDL version 420,2013-03-25 10:29:00,
2013-03-25 06:34:00,30.6,20.0,29.64,WSW,239,3.1,7.8,60,0.00,,,0.05,WSDL version 420,2013-03-25 10:34:00,
2013-03-25 06:39:00,30.6,19.6,29.64,South,185,3.0,7.8,60,0.00,,,0.05,WSDL version 420,2013-03-25 10:39:00,
2013-03-25 06:44:00,30.4,19.2,29.64,NW,318,1.2,6.0,59,0.00,,,0.05,WSDL version 420,2013-03-25 10:44:00,
2013-03-25 06:49:00,30.2,19.0,29.64,East,84,3.0,6.9,59,0.00,,,0.05,WSDL version 420,2013-03-25 10:49:00,
2013-03-25 06:54:00,30.2,19.3,29.64,ENE,68,2.8,6.9,59,0.00,,,0.05,WSDL version 420,2013-03-25 10:54:00,
2013-03-25 06:59:00,30.0,19.0,29.64,SSW,211,3.1,6.3,60,0.00,,,0.05,WSDL version 420,2013-03-25 10:59:00,
2013-03-25 07:04:00,30.0,19.2,29.64,NNE,23,2.4,5.8,61,0.00,,,0.05,WSDL version 420,2013-03-25 11:04:00,
2013-03-25 07:09:00,29.8,18.9,29.64,SSW,197,6.0,9.6,60,0.00,,,0.05,WSDL version 420,2013-03-25 11:09:00,
2013-03-25 07:14:00,29.8,18.6,29.64,WSW,250,2.7,9.6,60,0.00,,,0.05,WSDL version 420,2013-03-25 11:14:00,
2013-03-25 07:19:00,29.6,18.1,29.67,NW,320,3.0,7.4,59,0.00,,,0.05,WSDL version 420,2013-03-25 11:19:00,
2013-03-25 07:24:00,29.4,17.7,29.68,SW,225,3.3,12.5,56,0.00,,,0.05,WSDL version 420,2013-03-25 11:24:00,
2013-03-25 07:29:00,29.3,17.5,29.68,West,268,2.2,12.5,58,0.00,,,0.05,WSDL version 420,2013-03-25 11:29:00,
2013-03-25 07:34:00,29.3,17.2,29.68,West,276,2.7,8.7,57,0.00,,,0.05,WSDL version 420,2013-03-25 11:34:00,
2013-03-25 07:39:00,29.1,16.9,29.68,South,180,3.5,7.6,57,0.00,,,0.05,WSDL version 420,2013-03-25 11:39:00,
2013-03-25 07:44:00,29.1,16.9,29.68,SW,231,2.5,10.1,56,0.00,,,0.05,WSDL version 420,2013-03-25 11:44:00,
2013-03-25 07:49:00,29.1,16.5,29.68,WSW,251,4.0,10.5,55,0.00,,,0.05,WSDL version 420,2013-03-25 11:49:00,
2013-03-25 07:54:00,29.1,17.0,29.68,North,8,4.3,10.5,56,0.00,,,0.05,WSDL version 420,2013-03-25 11:54:00,
2013-03-25 07:59:00,29.2,17.0,29.68,WSW,250,4.3,10.3,56,0.00,,,0.05,WSDL version 420,2013-03-25 11:59:00,
2013-03-25 08:04:00,29.2,16.9,29.68,WSW,250,1.9,7.8,57,0.00,,,0.05,WSDL version 420,2013-03-25 12:04:00,
2013-03-25 08:09:00,29.3,17.2,29.68,SSW,209,3.3,8.7,55,0.00,,,0.05,WSDL version 420,2013-03-25 12:09:00,
2013-03-25 08:14:00,29.3,16.9,29.68,NW,321,4.0,10.1,55,0.00,,,0.05,WSDL version 420,2013-03-25 12:14:00,
2013-03-25 08:19:00,29.6,16.8,29.68,WSW,245,4.3,11.2,55,0.00,,,0.05,WSDL version 420,2013-03-25 12:19:00,
2013-03-25 08:24:00,29.9,17.1,29.68,East,93,4.2,11.2,54,0.00,,,0.05,WSDL version 420,2013-03-25 12:24:00,
2013-03-25 08:29:00,30.3,17.4,29.68,South,180,2.9,6.3,53,0.00,,,0.05,WSDL version 420,2013-03-25 12:29:00,
2013-03-25 08:34:00,30.6,17.1,29.67,WSW,257,5.8,11.0,53,0.00,,,0.05,WSDL version 420,2013-03-25 12:34:00,
2013-03-25 08:39:00,30.4,16.8,29.68,West,280,3.9,14.3,52,0.00,,,0.05,WSDL version 420,2013-03-25 12:39:00,
2013-03-25 08:44:00,30.4,16.6,29.68,SSW,195,4.2,14.3,52,0.00,,,0.05,WSDL version 420,2013-03-25 12:44:00,
2013-03-25 08:49:00,30.7,17.2,29.67,NE,45,3.7,12.3,53,0.00,,,0.05,WSDL version 420,2013-03-25 12:49:00,
2013-03-25 08:54:00,31.1,17.2,29.67,WNW,289,4.3,9.6,52,0.00,,,0.05,WSDL version 420,2013-03-25 12:54:00,
2013-03-25 08:59:00,31.3,16.9,29.67,ESE,110,5.6,9.6,50,0.00,,,0.05,WSDL version 420,2013-03-25 12:59:00,
2013-03-25 09:04:00,31.2,16.5,29.71,North,350,3.7,13.9,50,0.00,,,0.05,WSDL version 420,2013-03-25 13:04:00,
2013-03-25 09:09:00,31.2,16.6,29.71,WNW,290,4.1,13.9,50,0.00,,,0.05,WSDL version 420,2013-03-25 13:09:00,
2013-03-25 09:14:00,31.2,16.8,29.71,NW,307,4.7,12.5,51,0.00,,,0.05,WSDL version 420,2013-03-25 13:14:00,
2013-03-25 09:19:00,31.3,17.0,29.71,SE,138,5.5,12.5,50,0.00,,,0.05,WSDL version 420,2013-03-25 13:19:00,
2013-03-25 09:24:00,31.0,16.4,29.71,WSW,250,4.2,12.5,50,0.00,,,0.05,WSDL version 420,2013-03-25 13:24:00,
2013-03-25 09:29:00,31.9,17.3,29.71,NE,39,3.2,8.7,50,0.00,,,0.05,WSDL version 420,2013-03-25 13:29:00,
2013-03-25 09:34:00,31.7,16.3,29.67,East,85,4.9,9.6,50,0.00,,,0.05,WSDL version 420,2013-03-25 13:34:00,
2013-03-25 09:39:00,32.2,15.6,29.67,WSW,245,3.3,10.1,48,0.00,,,0.05,WSDL version 420,2013-03-25 13:39:00,
2013-03-25 09:44:00,32.6,15.4,29.67,SE,129,5.0,10.3,46,0.00,,,0.05,WSDL version 420,2013-03-25 13:44:00,
2013-03-25 09:49:00,32.4,14.5,29.71,NW,304,3.5,10.3,47,0.00,,,0.05,WSDL version 420,2013-03-25 13:49:00,
2013-03-25 09:54:00,32.6,14.0,29.71,South,188,3.7,6.5,44,0.00,,,0.05,WSDL version 420,2013-03-25 13:54:00,
2013-03-25 09:59:00,33.1,14.6,29.70,ESE,105,3.2,9.8,46,0.00,,,0.05,WSDL version 420,2013-03-25 13:59:00,
2013-03-25 10:04:00,32.5,13.3,29.71,SW,231,6.2,12.1,46,0.00,,,0.05,WSDL version 420,2013-03-25 14:04:00,
2013-03-25 10:14:00,33.0,13.2,29.71,SW,228,4.1,8.5,44,0.00,,,0.05,WSDL version 420,2013-03-25 14:14:00,
2013-03-25 10:19:00,33.8,14.0,29.70,NW,315,3.1,8.5,44,0.00,,,0.05,WSDL version 420,2013-03-25 14:19:00,
2013-03-25 10:24:00,33.7,13.9,29.70,East,87,4.5,7.8,44,0.00,,,0.05,WSDL version 420,2013-03-25 14:24:00,
2013-03-25 10:29:00,34.3,14.0,29.70,WSW,245,3.0,7.8,44,0.00,,,0.05,WSDL version 420,2013-03-25 14:29:00,
2013-03-25 10:34:00,34.4,14.9,29.70,North,5,3.6,7.8,44,0.00,,,0.05,WSDL version 420,2013-03-25 14:34:00,
2013-03-25 10:39:00,33.8,13.7,29.70,NW,312,3.2,7.6,44,0.00,,,0.05,WSDL version 420,2013-03-25 14:39:00,
2013-03-25 10:44:00,33.3,13.4,29.70,SSW,208,4.1,8.5,43,0.00,,,0.05,WSDL version 420,2013-03-25 14:44:00,
2013-03-25 10:49:00,33.4,13.7,29.70,WSW,248,4.8,10.1,44,0.00,,,0.05,WSDL version 420,2013-03-25 14:49:00,
2013-03-25 10:54:00,33.2,13.4,29.71,East,87,3.6,10.1,44,0.00,,,0.05,WSDL version 420,2013-03-25 14:54:00,
2013-03-25 10:59:00,33.2,13.7,29.70,West,267,4.4,12.8,44,0.00,,,0.05,WSDL version 420,2013-03-25 14:59:00,
2013-03-25 11:04:00,33.2,13.3,29.70,SW,231,4.4,12.8,44,0.00,,,0.05,WSDL version 420,2013-03-25 15:04:00,
2013-03-25 11:09:00,34.2,14.7,29.70,SE,124,3.4,9.6,45,0.00,,,0.05,WSDL version 420,2013-03-25 15:09:00,
2013-03-25 11:14:00,35.3,14.9,29.70,WNW,299,3.4,9.6,43,0.00,,,0.05,WSDL version 420,2013-03-25 15:14:00,
2013-03-25 11:19:00,35.9,14.7,29.70,SW,223,4.5,8.5,41,0.00,,,0.05,WSDL version 420,2013-03-25 15:19:00,
2013-03-25 11:24:00,35.7,14.7,29.70,ENE,73,4.5,10.5,41,0.00,,,0.05,WSDL version 420,2013-03-25 15:24:00,
2013-03-25 11:29:00,35.1,14.2,29.70,West,267,3.4,10.5,43,0.00,,,0.05,WSDL version 420,2013-03-25 15:29:00,
2013-03-25 11:34:00,34.8,13.8,29.74,NNE,15,3.6,7.6,42,0.00,,,0.05,WSDL version 420,2013-03-25 15:34:00,
2013-03-25 11:39:00,34.2,13.2,29.74,WSW,242,3.6,7.2,43,0.00,,,0.05,WSDL version 420,2013-03-25 15:39:00,
2013-03-25 11:44:00,34.1,13.5,29.74,South,175,2.1,6.5,42,0.00,,,0.05,WSDL version 420,2013-03-25 15:44:00,
2013-03-25 11:49:00,34.0,12.8,29.74,SE,127,4.5,10.3,41,0.00,,,0.05,WSDL version 420,2013-03-25 15:49:00,
2013-03-25 11:54:00,34.7,13.5,29.74,ENE,62,4.7,10.3,41,0.00,,,0.05,WSDL version 420,2013-03-25 15:54:00,
2013-03-25 11:59:00,34.7,13.0,29.74,East,88,5.4,10.1,40,0.00,,,0.05,WSDL version 420,2013-03-25 15:59:00,
2013-03-25 12:04:00,34.4,13.3,29.74,West,267,2.7,10.3,41,0.00,,,0.05,WSDL version 420,2013-03-25 16:04:00,
2013-03-25 12:09:00,34.9,13.2,29.74,SE,138,5.3,12.8,40,0.00,,,0.05,WSDL version 420,2013-03-25 16:09:00,
2013-03-25 12:14:00,35.0,13.1,29.74,NE,42,6.2,12.8,40,0.00,,,0.05,WSDL version 420,2013-03-25 16:14:00,
2013-03-25 12:19:00,34.7,13.0,29.74,WNW,288,5.0,10.5,40,0.00,,,0.05,WSDL version 420,2013-03-25 16:19:00,
2013-03-25 12:24:00,34.4,12.8,29.74,SSE,158,6.2,12.8,41,0.00,,,0.05,WSDL version 420,2013-03-25 16:24:00,
2013-03-25 12:29:00,35.2,13.7,29.74,SSW,195,4.0,12.8,41,0.00,,,0.05,WSDL version 420,2013-03-25 16:29:00,
2013-03-25 12:34:00,36.3,14.6,29.74,SW,228,4.4,9.4,41,0.00,,,0.05,WSDL version 420,2013-03-25 16:34:00,
2013-03-25 12:39:00,37.1,15.6,29.73,NNE,13,4.1,9.4,40,0.00,,,0.05,WSDL version 420,2013-03-25 16:39:00,
2013-03-25 12:44:00,35.6,13.6,29.74,South,190,5.1,10.5,40,0.00,,,0.05,WSDL version 420,2013-03-25 16:44:00,
2013-03-25 12:49:00,34.8,13.4,29.74,SE,129,3.0,11.0,41,0.00,,,0.05,WSDL version 420,2013-03-25 16:49:00,
2013-03-25 12:54:00,35.2,13.9,29.74,WNW,285,3.0,11.0,41,0.00,,,0.05,WSDL version 420,2013-03-25 16:54:00,
2013-03-25 12:59:00,36.9,15.1,29.73,SW,214,6.9,13.4,39,0.00,,,0.05,WSDL version 420,2013-03-25 16:59:00,
2013-03-25 13:04:00,36.6,14.6,29.77,SSW,213,3.8,13.4,40,0.00,,,0.05,WSDL version 420,2013-03-25 17:04:00,
2013-03-25 13:09:00,35.6,13.8,29.77,SW,220,5.3,8.7,40,0.00,,,0.05,WSDL version 420,2013-03-25 17:09:00,
2013-03-25 13:14:00,34.7,12.8,29.77,East,90,5.0,10.5,40,0.00,,,0.05,WSDL version 420,2013-03-25 17:14:00,
2013-03-25 13:19:00,34.5,13.4,29.74,SE,135,3.4,15.4,41,0.00,,,0.05,WSDL version 420,2013-03-25 17:19:00,
2013-03-25 13:24:00,33.9,12.9,29.74,ENE,70,4.2,18.1,42,0.00,,,0.05,WSDL version 420,2013-03-25 17:24:00,
2013-03-25 13:29:00,34.6,13.6,29.74,West,275,4.3,18.1,41,0.04,,,0.09,WSDL version 420,2013-03-25 17:29:00,
2013-03-25 13:34:00,35.3,13.9,29.74,SSW,206,5.0,13.0,41,0.04,,,0.09,WSDL version 420,2013-03-25 17:34:00,
2013-03-25 13:39:00,35.4,13.5,29.74,SSW,193,3.7,13.0,40,0.04,,,0.09,WSDL version 420,2013-03-25 17:39:00,
2013-03-25 13:44:00,34.5,13.1,29.74,WSW,250,5.0,10.3,41,0.04,,,0.09,WSDL version 420,2013-03-25 17:44:00,
2013-03-25 13:49:00,34.4,13.1,29.74,ESE,113,4.8,13.0,41,0.04,,,0.09,WSDL version 420,2013-03-25 17:49:00,
2013-03-25 13:54:00,35.3,13.2,29.74,East,93,5.9,13.0,39,0.04,,,0.09,WSDL version 420,2013-03-25 17:54:00,
2013-03-25 13:59:00,36.2,14.0,29.74,WSW,253,5.9,10.7,39,0.04,,,0.09,WSDL version 420,2013-03-25 17:59:00,
2013-03-25 14:04:00,35.1,12.9,29.74,WSW,255,5.0,12.8,40,0.04,,,0.09,WSDL version 420,2013-03-25 18:04:00,
2013-03-25 14:09:00,34.3,12.5,29.74,West,276,4.9,12.8,40,0.04,,,0.09,WSDL version 420,2013-03-25 18:09:00,
2013-03-25 14:14:00,35.3,13.4,29.74,NNW,348,4.8,10.1,40,0.04,,,0.09,WSDL version 420,2013-03-25 18:14:00,
2013-03-25 14:19:00,36.8,14.8,29.73,WNW,287,3.8,10.1,40,0.04,,,0.09,WSDL version 420,2013-03-25 18:19:00,
2013-03-25 14:24:00,35.7,13.8,29.74,SW,225,4.9,14.8,40,0.04,,,0.09,WSDL version 420,2013-03-25 18:24:00,
2013-03-25 14:29:00,34.9,13.3,29.74,West,281,4.6,14.8,40,0.00,,,0.09,WSDL version 420,2013-03-25 18:29:00,
2013-03-25 14:34:00,34.7,12.2,29.74,WNW,284,6.2,10.7,40,0.00,,,0.09,WSDL version 420,2013-03-25 18:34:00,
2013-03-25 14:39:00,35.6,13.7,29.74,SW,236,5.3,10.7,40,0.00,,,0.09,WSDL version 420,2013-03-25 18:39:00,
2013-03-25 14:44:00,38.2,15.9,29.73,West,280,4.8,10.7,39,0.00,,,0.09,WSDL version 420,2013-03-25 18:44:00,
2013-03-25 14:49:00,38.7,15.7,29.73,East,90,4.4,10.7,37,0.00,,,0.09,WSDL version 420,2013-03-25 18:49:00,
2013-03-25 14:54:00,38.9,14.9,29.73,WNW,295,4.8,13.0,36,0.00,,,0.09,WSDL version 420,2013-03-25 18:54:00,
2013-03-25 14:59:00,39.4,14.4,29.73,SE,125,4.1,13.0,36,0.00,,,0.09,WSDL version 420,2013-03-25 18:59:00,
2013-03-25 15:04:00,40.3,15.3,29.73,WNW,293,4.8,11.0,35,0.00,,,0.09,WSDL version 420,2013-03-25 19:04:00,
2013-03-25 15:09:00,40.6,15.6,29.73,West,270,7.6,15.4,35,0.00,,,0.09,WSDL version 420,2013-03-25 19:09:00,
2013-03-25 15:14:00,39.7,14.3,29.73,NNE,31,4.1,15.4,37,0.00,,,0.09,WSDL version 420,2013-03-25 19:14:00,
2013-03-25 15:19:00,38.0,13.3,29.73,SSW,205,4.6,15.4,37,0.00,,,0.09,WSDL version 420,2013-03-25 19:19:00,
2013-03-25 15:24:00,38.1,15.3,29.73,SSE,155,3.8,15.4,39,0.00,,,0.09,WSDL version 420,2013-03-25 19:24:00,
2013-03-25 15:29:00,37.8,14.6,29.73,WSW,239,5.9,12.8,39,0.00,,,0.09,WSDL version 420,2013-03-25 19:29:00,
2013-03-25 15:34:00,38.1,15.2,29.77,SSE,151,4.8,12.8,39,0.00,,,0.09,WSDL version 420,2013-03-25 19:34:00,
2013-03-25 15:39:00,37.9,14.8,29.77,ENE,60,4.3,9.8,39,0.00,,,0.09,WSDL version 420,2013-03-25 19:39:00,
2013-03-25 15:44:00,38.5,15.1,29.76,South,174,4.3,11.0,36,0.00,,,0.09,WSDL version 420,2013-03-25 19:44:00,
2013-03-25 15:49:00,37.4,14.5,29.77,WSW,258,4.7,12.8,39,0.00,,,0.09,WSDL version 420,2013-03-25 19:49:00,
2013-03-25 15:54:00,36.8,14.2,29.77,NNW,343,2.6,12.8,39,0.00,,,0.09,WSDL version 420,2013-03-25 19:54:00,
2013-03-25 15:59:00,35.8,14.2,29.77,West,270,5.4,16.6,42,0.00,,,0.09,WSDL version 420,2013-03-25 19:59:00,
2013-03-25 16:04:00,36.4,15.0,29.77,SSW,208,4.3,16.6,41,0.00,,,0.09,WSDL version 420,2013-03-25 20:04:00,
2013-03-25 16:09:00,35.7,14.1,29.77,SW,219,5.3,11.0,41,0.00,,,0.09,WSDL version 420,2013-03-25 20:09:00,
2013-03-25 16:14:00,36.1,14.0,29.77,South,190,6.8,12.5,39,0.00,,,0.09,WSDL version 420,2013-03-25 20:14:00,
2013-03-25 16:19:00,35.0,13.0,29.77,SSW,205,5.3,12.5,40,0.00,,,0.09,WSDL version 420,2013-03-25 20:19:00,
2013-03-25 16:24:00,35.0,13.3,29.77,SW,223,3.9,12.5,40,0.00,,,0.09,WSDL version 420,2013-03-25 20:24:00,
2013-03-25 16:29:00,35.1,13.0,29.77,SSW,194,5.4,12.1,39,0.00,,,0.09,WSDL version 420,2013-03-25 20:29:00,
2013-03-25 16:34:00,34.6,12.7,29.77,NW,315,6.2,10.7,40,0.00,,,0.09,WSDL version 420,2013-03-25 20:34:00,
2013-03-25 16:39:00,35.0,13.2,29.77,WSW,255,4.5,10.7,40,0.00,,,0.09,WSDL version 420,2013-03-25 20:39:00,
2013-03-25 16:44:00,34.9,13.1,29.77,East,87,5.0,11.0,41,0.00,,,0.09,WSDL version 420,2013-03-25 20:44:00,
2013-03-25 16:49:00,34.6,12.7,29.77,SSW,213,4.9,16.6,40,0.00,,,0.09,WSDL version 420,2013-03-25 20:49:00,
2013-03-25 16:54:00,34.5,12.7,29.77,SW,235,7.1,16.6,40,0.00,,,0.09,WSDL version 420,2013-03-25 20:54:00,
2013-03-25 16:59:00,34.4,13.0,29.77,SE,145,4.8,14.1,41,0.00,,,0.09,WSDL version 420,2013-03-25 20:59:00,
2013-03-25 17:04:00,34.6,13.3,29.77,SSW,211,5.0,11.0,41,0.00,,,0.09,WSDL version 420,2013-03-25 21:04:00,
2013-03-25 17:09:00,34.5,13.2,29.77,West,270,5.5,11.0,41,0.00,,,0.09,WSDL version 420,2013-03-25 21:09:00,
2013-03-25 17:14:00,34.6,13.5,29.77,ESE,108,5.6,10.1,41,0.00,,,0.09,WSDL version 420,2013-03-25 21:14:00,
2013-03-25 17:19:00,34.2,12.9,29.77,WNW,293,4.3,10.7,41,0.00,,,0.09,WSDL version 420,2013-03-25 21:19:00,
2013-03-25 17:24:00,33.9,13.2,29.78,NE,48,5.4,17.0,42,0.00,,,0.09,WSDL version 420,2013-03-25 21:24:00,
2013-03-25 17:29:00,34.1,13.6,29.78,NW,323,4.6,17.0,42,0.00,,,0.09,WSDL version 420,2013-03-25 21:29:00,
2013-03-25 17:34:00,34.2,13.6,29.77,South,173,6.3,10.7,42,0.00,,,0.09,WSDL version 420,2013-03-25 21:34:00,
2013-03-25 17:39:00,33.8,13.0,29.78,SW,222,5.1,13.0,42,0.00,,,0.09,WSDL version 420,2013-03-25 21:39:00,
2013-03-25 17:44:00,33.4,12.8,29.78,SW,215,6.0,13.0,42,0.00,,,0.09,WSDL version 420,2013-03-25 21:44:00,
2013-03-25 17:49:00,33.6,13.0,29.81,NW,308,4.5,11.0,42,0.00,,,0.09,WSDL version 420,2013-03-25 21:49:00,
2013-03-25 17:54:00,33.5,12.8,29.81,WSW,240,4.2,10.7,42,0.00,,,0.09,WSDL version 420,2013-03-25 21:54:00,
2013-03-25 17:59:00,33.7,13.3,29.81,WNW,287,2.2,10.7,43,0.00,,,0.09,WSDL version 420,2013-03-25 21:59:00,
2013-03-25 18:04:00,34.0,14.0,29.81,WNW,293,5.1,10.1,43,0.00,,,0.09,WSDL version 420,2013-03-25 22:04:00,
2013-03-25 18:09:00,33.7,13.2,29.81,South,183,5.4,12.5,42,0.00,,,0.09,WSDL version 420,2013-03-25 22:09:00,
2013-03-25 18:14:00,33.5,13.1,29.81,South,180,4.2,12.5,43,0.00,,,0.09,WSDL version 420,2013-03-25 22:14:00,
2013-03-25 18:19:00,33.2,13.2,29.81,WNW,298,3.9,14.8,43,0.00,,,0.09,WSDL version 420,2013-03-25 22:19:00,
2013-03-25 18:24:00,33.2,12.9,29.81,SSW,213,5.1,14.8,42,0.00,,,0.09,WSDL version 420,2013-03-25 22:24:00,
2013-03-25 18:29:00,33.1,13.0,29.81,WNW,298,4.0,9.8,43,0.00,,,0.09,WSDL version 420,2013-03-25 22:29:00,
2013-03-25 18:34:00,33.1,13.6,29.85,ENE,73,5.0,9.8,45,0.00,,,0.09,WSDL version 420,2013-03-25 22:34:00,
2013-03-25 18:39:00,32.7,13.6,29.85,NW,309,5.2,12.1,45,0.00,,,0.09,WSDL version 420,2013-03-25 22:39:00,
2013-03-25 18:44:00,32.4,13.2,29.85,SW,230,4.0,12.1,44,0.00,,,0.09,WSDL version 420,2013-03-25 22:44:00,
2013-03-25 18:49:00,32.0,14.8,29.85,WSW,250,6.7,12.5,45,0.00,,,0.09,WSDL version 420,2013-03-25 22:49:00,
2013-03-25 18:54:00,31.9,15.3,29.85,SE,128,4.8,12.5,47,0.00,,,0.09,WSDL version 420,2013-03-25 22:54:00,
2013-03-25 18:59:00,31.5,15.1,29.85,WSW,248,6.4,19.0,46,0.00,,,0.09,WSDL version 420,2013-03-25 22:59:00,
2013-03-25 19:04:00,31.3,15.5,29.85,SW,233,4.9,19.0,49,0.00,,,0.09,WSDL version 420,2013-03-25 23:04:00,
2013-03-25 19:09:00,31.1,16.1,29.85,NNE,33,5.2,11.0,50,0.00,,,0.09,WSDL version 420,2013-03-25 23:09:00,
2013-03-25 19:14:00,30.7,16.2,29.85,WNW,283,6.9,12.5,50,0.00,,,0.09,WSDL version 420,2013-03-25 23:14:00,
2013-03-25 19:19:00,30.3,15.3,29.89,South,188,5.9,12.5,50,0.00,,,0.09,WSDL version 420,2013-03-25 23:19:00,
2013-03-25 19:24:00,30.2,15.4,29.89,North,354,4.4,11.2,48,0.00,,,0.09,WSDL version 420,2013-03-25 23:24:00,
2013-03-25 19:29:00,30.2,15.2,29.89,NE,45,5.0,13.4,50,0.00,,,0.09,WSDL version 420,2013-03-25 23:29:00,
2013-03-25 19:34:00,30.1,15.5,29.89,SSW,193,5.2,13.4,50,0.00,,,0.09,WSDL version 420,2013-03-25 23:34:00,
2013-03-25 19:39:00,29.9,15.7,29.89,WSW,253,4.1,11.0,51,0.00,,,0.09,WSDL version 420,2013-03-25 23:39:00,
2013-03-25 19:44:00,29.6,15.5,29.89,SSE,153,3.5,12.3,51,0.00,,,0.09,WSDL version 420,2013-03-25 23:44:00,
2013-03-25 19:49:00,29.4,15.7,29.89,SSW,208,3.1,12.3,53,0.00,,,0.09,WSDL version 420,2013-03-25 23:49:00,
2013-03-25 19:54:00,29.2,15.8,29.89,South,185,4.0,9.6,53,0.00,,,0.09,WSDL version 420,2013-03-25 23:54:00,
2013-03-25 19:59:00,29.0,15.7,29.89,South,172,5.3,9.6,53,0.00,,,0.09,WSDL version 420,2013-03-25 23:59:00,
2013-03-25 20:04:00,28.9,15.6,29.89,WSW,250,4.9,11.2,53,0.00,,,0.09,WSDL version 420,2013-03-26 00:04:00,
2013-03-25 20:09:00,28.8,15.6,29.89,South,188,3.7,11.2,54,0.00,,,0.09,WSDL version 420,2013-03-26 00:09:00,
2013-03-25 20:14:00,28.8,15.8,29.89,WSW,257,6.0,12.8,54,0.00,,,0.09,WSDL version 420,2013-03-26 00:14:00,
2013-03-25 20:19:00,28.7,16.1,29.89,ESE,108,3.9,12.8,55,0.00,,,0.09,WSDL version 420,2013-03-26 00:19:00,
2013-03-25 20:24:00,28.6,15.8,29.89,ESE,115,4.4,9.8,55,0.00,,,0.09,WSDL version 420,2013-03-26 00:24:00,
2013-03-25 20:29:00,28.6,15.9,29.89,WNW,300,3.8,11.9,55,0.00,,,0.09,WSDL version 420,2013-03-26 00:29:00,
2013-03-25 20:34:00,28.6,16.4,29.89,WSW,256,3.6,11.9,56,0.00,,,0.09,WSDL version 420,2013-03-26 00:34:00,
2013-03-25 20:39:00,28.6,16.4,29.89,East,85,3.5,9.4,56,0.00,,,0.09,WSDL version 420,2013-03-26 00:39:00,
2013-03-25 20:44:00,28.4,16.3,29.89,NW,310,4.2,10.1,56,0.00,,,0.09,WSDL version 420,2013-03-26 00:44:00,
2013-03-25 20:49:00,28.4,16.4,29.92,NE,42,4.3,10.1,56,0.00,,,0.09,WSDL version 420,2013-03-26 00:49:00,
2013-03-25 20:54:00,28.4,16.5,29.92,South,190,4.7,12.3,57,0.00,,,0.09,WSDL version 420,2013-03-26 00:54:00,
2013-03-25 20:59:00,28.3,16.4,29.92,ESE,121,3.5,12.3,57,0.00,,,0.09,WSDL version 420,2013-03-26 00:59:00,
2013-03-25 21:04:00,28.2,16.4,29.92,North,350,4.2,14.3,57,0.00,,,0.09,WSDL version 420,2013-03-26 01:04:00,
2013-03-25 21:09:00,28.2,16.4,29.92,South,186,3.9,14.3,57,0.00,,,0.09,WSDL version 420,2013-03-26 01:09:00,
2013-03-25 21:14:00,28.2,16.7,29.92,West,259,5.0,11.9,57,0.00,,,0.09,WSDL version 420,2013-03-26 01:14:00,
2013-03-25 21:19:00,28.2,16.6,29.92,ESE,113,3.3,11.9,58,0.00,,,0.09,WSDL version 420,2013-03-26 01:19:00,
2013-03-25 21:24:00,28.2,16.9,29.92,WNW,298,4.9,8.5,59,0.00,,,0.09,WSDL version 420,2013-03-26 01:24:00,
2013-03-25 21:29:00,28.1,16.8,29.92,SSW,195,3.0,8.5,59,0.00,,,0.09,WSDL version 420,2013-03-26 01:29:00,
2013-03-25 21:34:00,28.1,17.0,29.92,South,172,4.5,10.3,59,0.00,,,0.09,WSDL version 420,2013-03-26 01:34:00,
2013-03-25 21:39:00,28.2,17.1,29.92,NE,51,5.0,10.3,59,0.00,,,0.09,WSDL version 420,2013-03-26 01:39:00,
2013-03-25 21:44:00,28.1,16.7,29.92,North,353,4.4,10.3,58,0.00,,,0.09,WSDL version 420,2013-03-26 01:44:00,
2013-03-25 21:49:00,28.0,16.6,29.92,WSW,245,5.1,10.3,58,0.00,,,0.09,WSDL version 420,2013-03-26 01:49:00,
2013-03-25 21:54:00,28.0,16.7,29.92,NNE,30,2.1,9.8,59,0.00,,,0.09,WSDL version 420,2013-03-26 01:54:00,
2013-03-25 21:59:00,28.0,16.9,29.92,West,270,3.1,9.8,59,0.00,,,0.09,WSDL version 420,2013-03-26 01:59:00,
2013-03-25 22:04:00,27.9,16.9,29.92,NW,304,3.7,9.8,60,0.00,,,0.09,WSDL version 420,2013-03-26 02:04:00,
2013-03-25 22:09:00,28.0,17.0,29.92,SSW,203,3.8,10.5,59,0.00,,,0.09,WSDL version 420,2013-03-26 02:09:00,
2013-03-25 22:14:00,28.0,16.9,29.92,SSW,193,5.6,10.5,60,0.00,,,0.09,WSDL version 420,2013-03-26 02:14:00,
2013-03-25 22:19:00,27.9,17.1,29.95,ESE,107,3.5,8.5,60,0.00,,,0.09,WSDL version 420,2013-03-26 02:19:00,
2013-03-25 22:24:00,27.9,17.1,29.95,NW,310,3.4,8.5,60,0.00,,,0.09,WSDL version 420,2013-03-26 02:24:00,
2013-03-25 22:29:00,27.9,17.0,29.95,NW,323,2.9,9.8,59,0.00,,,0.09,WSDL version 420,2013-03-26 02:29:00,
2013-03-25 22:34:00,27.9,17.0,29.95,South,183,2.0,9.8,59,0.00,,,0.09,WSDL version 420,2013-03-26 02:34:00,
2013-03-25 22:39:00,27.9,17.0,29.95,WSW,245,6.0,10.7,59,0.00,,,0.09,WSDL version 420,2013-03-26 02:39:00,
2013-03-25 22:44:00,27.9,16.5,29.95,NW,321,4.6,10.7,58,0.00,,,0.09,WSDL version 420,2013-03-26 02:44:00,
2013-03-25 22:49:00,27.9,16.6,29.95,South,185,4.4,11.9,58,0.00,,,0.09,WSDL version 420,2013-03-26 02:49:00,
2013-03-25 22:54:00,27.9,16.5,29.95,NNE,13,4.4,11.9,59,0.00,,,0.09,WSDL version 420,2013-03-26 02:54:00,
2013-03-25 22:59:00,27.9,16.9,29.95,SSE,166,4.8,10.3,59,0.00,,,0.09,WSDL version 420,2013-03-26 02:59:00,
2013-03-25 23:04:00,27.9,16.6,29.95,NNW,335,4.8,12.3,58,0.00,,,0.09,WSDL version 420,2013-03-26 03:04:00,
2013-03-25 23:09:00,27.9,16.5,29.95,South,183,4.3,12.3,58,0.00,,,0.09,WSDL version 420,2013-03-26 03:09:00,
2013-03-25 23:14:00,27.9,16.5,29.95,SSW,208,2.1,21.0,59,0.00,,,0.09,WSDL version 420,2013-03-26 03:14:00,
2013-03-25 23:19:00,27.7,16.6,29.94,SSE,158,6.3,21.0,58,0.00,,,0.09,WSDL version 420,2013-03-26 03:19:00,
2013-03-25 23:24:00,27.7,16.5,29.94,SSW,213,3.2,11.0,60,0.00,,,0.09,WSDL version 420,2013-03-26 03:24:00,
2013-03-25 23:29:00,27.5,16.9,29.95,West,270,6.0,9.2,60,0.00,,,0.09,WSDL version 420,2013-03-26 03:29:00,
2013-03-25 23:34:00,27.5,16.4,29.95,NW,315,3.5,8.7,58,0.00,,,0.09,WSDL version 420,2013-03-26 03:34:00,
2013-03-25 23:39:00,27.3,15.9,29.95,West,270,3.8,8.5,57,0.00,,,0.09,WSDL version 420,2013-03-26 03:39:00,
2013-03-25 23:44:00,27.3,15.5,29.95,SW,219,5.6,20.8,57,0.00,,,0.09,WSDL version 420,2013-03-26 03:44:00,
2013-03-25 23:49:00,27.3,15.2,29.95,North,3,5.2,20.8,56,0.00,,,0.09,WSDL version 420,2013-03-26 03:49:00,
2013-03-25 23:54:00,27.3,15.2,29.95,South,180,5.8,14.3,56,0.00,,,0.09,WSDL version 420,2013-03-26 03:54:00,
2013-03-25 23:59:00,27.3,15.4,29.95,West,259,4.6,14.3,57,0.00,,,0.09,WSDL version 420,2013-03-26 03:59:00,